Villa Park, California
Current Conditions -  °F | °C
As of 10:53 PM on Saturday 25 Oct 2014 (Local Time) from KSNA Reporting Station
Clear Clear  
Wind Chill: 69°   Ceiling: Unl
Heat Index: 69°   Visibility: 10mi
Dew Point: 61°   Wind: 3mph
Humidity: 75%   Direction: 170°S
Pressure: 30.02"   Gusts: NA
Location:  33.81°N, 117.82°W
Report Text: KSNA 260553Z 17003KT 10SM CLR 21/16 A3002 RMK AO2 SLP163 T02060161 10244 20206 51004
Loading
Personal Weather Stations






























Interactive Weather Map
Tropical Storm Tracking
New forecast layout! Learn more

10-Day Weather Forecast

Advertisements
Track Severe Weather on mobile